Time;durP1;ratioP1;P1;durP2;ratioP2;P2;SDS_P1;SDS_P2;PMS_P1;PMS_P2;Temp;Humidity;BMP_temperature;BMP_pressure;BME280_temperature;BME280_humidity;BME280_pressure;Samples;Min_cycle;Max_cycle;Signal;HPM_P1;HPM_P2
2021/11/04 00:00:29;;;;;;;26.52;11.55;;;;;;;7.88;78.10;98073.06;2210296;81;21021;-65
2021/11/04 00:03:32;;;;;;;28.70;12.40;;;;;;;7.86;77.99;98073.64;2189034;81;21495;-65
2021/11/04 00:06:34;;;;;;;28.65;12.58;;;;;;;7.88;78.14;98073.06;2210430;81;20957;-65
2021/11/04 00:09:35;;;;;;;30.62;12.43;;;;;;;7.93;77.95;98081.91;2210424;81;20976;-65
2021/11/04 00:12:37;;;;;;;27.90;11.53;;;;;;;7.91;78.08;98076.78;2210545;81;20965;-65
2021/11/04 00:15:38;;;;;;;28.23;12.03;;;;;;;7.95;77.87;98074.35;2210851;81;20972;-65
2021/11/04 00:18:40;;;;;;;28.00;11.75;;;;;;;7.97;78.17;98069.89;2210383;81;21053;-65
2021/11/04 00:21:42;;;;;;;26.27;11.38;;;;;;;7.96;78.11;98068.20;2210531;81;20992;-65
2021/11/04 00:24:43;;;;;;;30.82;12.43;;;;;;;7.95;78.02;98077.45;2210755;81;20977;-65
2021/11/04 00:27:45;;;;;;;27.52;12.00;;;;;;;7.98;78.15;98077.25;2210376;81;21000;-65
2021/11/04 00:30:46;;;;;;;26.35;10.93;;;;;;;8.01;77.96;98069.22;2210674;81;21492;-65
2021/11/04 00:33:51;;;;;;;25.92;10.85;;;;;;;7.98;77.92;98059.80;2210391;81;20949;-65
2021/11/04 00:36:51;;;;;;;29.27;11.48;;;;;;;8.01;77.88;98065.78;2188834;81;21048;-64
2021/11/04 00:39:52;;;;;;;27.77;10.48;;;;;;;8.07;77.82;98058.37;2210449;81;21416;-65
2021/11/04 00:42:54;;;;;;;26.25;11.12;;;;;;;8.09;77.69;98060.45;2216761;80;20992;-65
2021/11/04 00:45:55;;;;;;;25.55;11.10;;;;;;;8.05;77.75;98065.97;2220675;80;20976;-65
2021/11/04 00:48:56;;;;;;;29.25;11.35;;;;;;;8.05;78.10;98059.44;2220273;80;21114;-65
2021/11/04 00:51:58;;;;;;;26.02;10.70;;;;;;;8.04;77.84;98054.66;2220950;80;21052;-65
2021/11/04 00:55:00;;;;;;;26.07;11.15;;;;;;;8.09;77.95;98046.55;2220322;80;21063;-65
2021/11/04 00:58:02;;;;;;;26.60;11.08;;;;;;;8.12;77.72;98051.58;2220644;80;21055;-65
2021/11/04 01:01:04;;;;;;;25.60;10.60;;;;;;;8.17;77.81;98056.51;2220650;80;21076;-65
2021/11/04 01:04:05;;;;;;;25.15;10.93;;;;;;;8.21;77.84;98050.98;2220762;80;21028;-65
2021/11/04 01:07:07;;;;;;;25.10;10.32;;;;;;;8.21;78.04;98043.63;2220471;80;21028;-65
2021/11/04 01:10:08;;;;;;;27.27;10.75;;;;;;;8.24;77.80;98035.59;2220636;80;21047;-65
2021/11/04 01:13:10;;;;;;;26.68;10.28;;;;;;;8.21;78.09;98012.28;2220404;80;21096;-65
2021/11/04 01:16:11;;;;;;;27.07;10.15;;;;;;;8.19;78.33;97992.78;2220507;80;21519;-65
2021/11/04 01:19:14;;;;;;;27.45;10.70;;;;;;;8.14;78.56;98004.81;2220516;80;21035;-65
2021/11/04 01:22:16;;;;;;;27.60;10.53;;;;;;;8.18;78.93;98015.92;2220650;80;21024;-65
2021/11/04 01:25:18;;;;;;;26.73;10.68;;;;;;;8.19;78.80;98022.83;2220609;80;21560;-65
2021/11/04 01:28:19;;;;;;;26.40;10.20;;;;;;;8.19;79.31;97998.02;2220600;80;21056;-65
2021/11/04 01:31:21;;;;;;;25.68;10.53;;;;;;;8.13;79.13;97983.56;2220791;80;21073;-65
2021/11/04 01:34:22;;;;;;;25.70;9.85;;;;;;;8.07;79.86;97987.03;2220596;80;21026;-65
2021/11/04 01:37:24;;;;;;;26.40;9.88;;;;;;;8.07;79.34;97987.86;2220487;80;21028;-65
2021/11/04 01:40:25;;;;;;;24.52;9.68;;;;;;;8.06;79.50;97984.90;2220539;80;21131;-65
2021/11/04 01:43:28;;;;;;;25.50;9.30;;;;;;;8.05;79.56;97975.86;2213325;80;21091;-65
2021/11/04 01:46:29;;;;;;;;;;;;;;;7.98;80.12;97956.64;2213108;81;21040;-65
2021/11/04 01:49:31;;;;;;;23.42;9.30;;;;;;;7.99;80.28;97947.05;2209858;80;20164;-65
2021/11/04 01:52:32;;;;;;;25.82;9.95;;;;;;;7.96;79.87;97948.56;2210251;81;20988;-65
2021/11/04 01:55:34;;;;;;;24.50;9.85;;;;;;;7.93;80.00;97961.34;2210460;80;21036;-65
2021/11/04 01:58:35;;;;;;;23.92;9.65;;;;;;;7.89;80.28;97950.72;2210277;81;21004;-65
2021/11/04 02:01:36;;;;;;;24.95;9.75;;;;;;;7.88;80.51;97950.34;2210200;81;20996;-65
2021/11/04 02:04:38;;;;;;;24.77;8.80;;;;;;;7.90;80.18;97947.62;2210433;80;21448;-65
2021/11/04 02:07:39;;;;;;;25.97;9.40;;;;;;;7.94;80.19;97944.75;2210105;81;21092;-65
2021/11/04 02:10:41;;;;;;;26.05;9.38;;;;;;;7.95;80.08;97937.26;2210234;81;21538;-65
2021/11/04 02:13:43;;;;;;;23.98;9.10;;;;;;;7.93;80.27;97935.68;2210281;81;21044;-65
2021/11/04 02:16:44;;;;;;;22.73;7.95;;;;;;;7.94;80.13;97930.83;2210137;81;21536;-65
2021/11/04 02:19:46;;;;;;;24.32;8.45;;;;;;;7.96;80.08;97925.06;2210305;81;20937;-65
2021/11/04 02:22:48;;;;;;;;;;;;;;;7.96;80.02;97928.50;2212924;80;21540;-65
2021/11/04 02:25:49;;;;;;;22.60;7.90;;;;;;;7.96;79.93;97925.89;2210187;80;20097;-65
2021/11/04 02:28:51;;;;;;;23.18;7.97;;;;;;;7.96;80.33;97919.36;2210323;80;21476;-65
2021/11/04 02:31:52;;;;;;;24.43;7.87;;;;;;;7.99;80.12;97913.11;2210288;81;21007;-65
2021/11/04 02:34:54;;;;;;;20.90;7.47;;;;;;;8.05;80.09;97893.11;2210083;81;21530;-65
2021/11/04 02:37:55;;;;;;;22.77;7.72;;;;;;;8.07;80.09;97886.00;2210278;81;20964;-65
2021/11/04 02:40:56;;;;;;;23.90;7.55;;;;;;;8.07;79.68;97889.09;2210154;81;21088;-65
2021/11/04 02:43:58;;;;;;;21.30;7.15;;;;;;;8.12;79.46;97886.55;2218327;80;21072;-65
2021/11/04 02:46:59;;;;;;;20.90;6.95;;;;;;;8.15;79.29;97896.78;2220832;80;21023;-65
2021/11/04 02:50:01;;;;;;;20.20;7.00;;;;;;;8.15;79.04;97892.05;2221020;80;21000;-65
2021/11/04 02:53:02;;;;;;;20.77;7.20;;;;;;;8.17;79.08;97888.84;2220727;80;20960;-65
2021/11/04 02:56:04;;;;;;;21.37;7.22;;;;;;;8.22;79.00;97886.78;2220595;80;21025;-65
2021/11/04 02:59:06;;;;;;;20.43;6.65;;;;;;;8.28;78.85;97876.39;2220899;80;21070;-65
2021/11/04 03:02:07;;;;;;;21.73;7.10;;;;;;;8.29;78.55;97861.92;2220739;80;21072;-65
2021/11/04 03:05:08;;;;;;;21.68;6.70;;;;;;;8.31;78.61;97857.41;2220749;80;21024;-65
2021/11/04 03:08:10;;;;;;;20.45;6.70;;;;;;;8.31;78.64;97860.51;2220844;80;21095;-65
2021/11/04 03:11:11;;;;;;;20.60;7.25;;;;;;;8.31;78.54;97841.73;2220766;80;20997;-65
2021/11/04 03:14:13;;;;;;;22.60;7.15;;;;;;;8.35;78.43;97840.22;2220693;80;21506;-65
2021/11/04 03:17:14;;;;;;;24.30;7.33;;;;;;;8.37;78.30;97847.02;2220753;80;20953;-65
2021/11/04 03:20:15;;;;;;;20.70;6.47;;;;;;;8.40;78.12;97845.98;2220762;80;21502;-65
2021/11/04 03:23:17;;;;;;;20.30;6.33;;;;;;;8.45;77.87;97841.33;2220843;80;20952;-65
2021/11/04 03:26:18;;;;;;;20.37;6.40;;;;;;;8.50;77.50;97828.77;2220741;80;20988;-65
2021/11/04 03:29:20;;;;;;;19.10;6.30;;;;;;;8.55;77.58;97830.61;2221118;80;21011;-64
2021/11/04 03:32:21;;;;;;;19.98;6.30;;;;;;;8.55;77.09;97829.75;2221159;80;21114;-65
2021/11/04 03:35:23;;;;;;;19.90;5.90;;;;;;;8.54;77.07;97826.80;2220907;80;21570;-65
2021/11/04 03:38:24;;;;;;;18.27;6.05;;;;;;;8.56;76.82;97830.13;2220916;80;21048;-64
2021/11/04 03:41:25;;;;;;;20.68;6.35;;;;;;;8.57;76.72;97820.05;2220954;80;21570;-65
2021/11/04 03:44:27;;;;;;;22.85;6.70;;;;;;;8.60;76.68;97826.36;2211702;80;21049;-65
2021/11/04 03:47:28;;;;;;;22.40;7.08;;;;;;;8.61;76.65;97821.03;2210286;81;21011;-65
2021/11/04 03:50:30;;;;;;;22.60;7.03;;;;;;;8.64;76.35;97826.52;2210384;81;20945;-65
2021/11/04 03:53:31;;;;;;;21.12;6.85;;;;;;;8.63;76.32;97815.69;2210288;81;20988;-65
2021/11/04 03:56:33;;;;;;;19.92;6.40;;;;;;;8.63;76.25;97813.93;2210016;81;21115;-65
2021/11/04 03:59:35;;;;;;;20.40;6.67;;;;;;;8.61;76.27;97805.34;2210852;80;21016;-65
2021/11/04 04:02:36;;;;;;;22.50;6.95;;;;;;;8.63;76.25;97805.23;2210537;81;20941;-65
2021/11/04 04:05:38;;;;;;;21.12;7.08;;;;;;;8.62;76.17;97814.01;2210296;81;21472;-65
2021/11/04 04:08:39;;;;;;;21.33;6.47;;;;;;;8.60;76.20;97814.60;2210289;81;20989;-65
2021/11/04 04:11:42;;;;;;;22.77;6.83;;;;;;;8.62;76.33;97811.39;2210328;81;21032;-65
2021/11/04 04:14:44;;;;;;;22.93;7.33;;;;;;;8.61;76.39;97800.59;2210288;80;20976;-65
2021/11/04 04:17:45;;;;;;;20.72;7.12;;;;;;;8.56;76.46;97795.70;2210400;81;21015;-65
2021/11/04 04:20:47;;;;;;;24.05;7.12;;;;;;;8.54;76.79;97788.41;2210319;81;20949;-65
2021/11/04 04:23:48;;;;;;;21.27;7.10;;;;;;;8.53;77.05;97789.34;2210509;81;21009;-65
2021/11/04 04:26:50;;;;;;;21.17;7.03;;;;;;;8.52;77.36;97775.94;2210241;81;21024;-65
2021/11/04 04:29:51;;;;;;;19.55;6.37;;;;;;;8.44;77.56;97766.44;2210213;81;21602;-65
2021/11/04 04:32:53;;;;;;;21.93;7.05;;;;;;;8.41;77.83;97757.52;2210541;80;21028;-65
2021/11/04 04:35:55;;;;;;;20.20;6.58;;;;;;;8.39;78.01;97756.31;2210249;81;21036;-65
2021/11/04 04:38:57;;;;;;;22.95;7.28;;;;;;;8.38;78.20;97749.89;2210303;81;21040;-65
2021/11/04 04:41:58;;;;;;;24.77;7.33;;;;;;;8.40;78.40;97753.22;2210442;81;20977;-65
2021/11/04 04:45:00;;;;;;;19.65;6.40;;;;;;;8.39;78.57;97756.31;2210142;81;21013;-65
2021/11/04 04:48:02;;;;;;;21.30;7.17;;;;;;;8.40;78.62;97746.69;2210192;81;21552;-65
2021/11/04 04:51:04;;;;;;;21.07;7.05;;;;;;;8.38;78.90;97738.13;2210008;81;21547;-65
2021/11/04 04:54:05;;;;;;;21.15;6.85;;;;;;;8.33;79.31;97738.42;2210245;81;21052;-65
2021/11/04 04:57:07;;;;;;;26.25;8.43;;;;;;;8.26;79.61;97739.34;2210182;80;20992;-65
2021/11/04 05:03:11;;;;;;;21.50;7.80;;;;;;;8.22;80.93;97747.02;2188588;81;21032;-65
2021/11/04 05:06:13;;;;;;;24.15;7.85;;;;;;;8.23;81.55;97730.86;2210336;81;20972;-65
2021/11/04 05:09:15;;;;;;;21.75;8.25;;;;;;;8.19;81.21;97728.95;2210436;81;21033;-65
2021/11/04 05:12:16;;;;;;;21.85;6.67;;;;;;;8.23;81.78;97719.11;2210454;80;20986;-65
2021/11/04 05:15:18;;;;;;;22.35;7.10;;;;;;;8.28;81.23;97720.95;2210453;81;21003;-65
2021/11/04 05:18:20;;;;;;;22.30;7.25;;;;;;;8.28;81.20;97721.77;2210413;80;21024;-65
2021/11/04 05:21:21;;;;;;;24.52;8.55;;;;;;;8.30;81.85;97728.20;2210429;81;20993;-65
2021/11/04 05:24:23;;;;;;;21.80;7.35;;;;;;;8.27;81.68;97728.41;2210330;81;21020;-65
2021/11/04 05:27:25;;;;;;;22.00;7.03;;;;;;;8.27;82.27;97725.80;2210428;81;20984;-65
2021/11/04 05:30:27;;;;;;;20.77;7.17;;;;;;;8.25;82.02;97725.91;2210353;81;21016;-65
2021/11/04 05:33:28;;;;;;;23.10;6.90;;;;;;;8.24;82.04;97722.92;2210365;81;21084;-64
2021/11/04 05:36:30;;;;;;;21.42;6.90;;;;;;;8.27;82.08;97714.87;2210210;81;21115;-65
2021/11/04 05:39:31;;;;;;;20.75;6.72;;;;;;;8.33;82.47;97711.00;2210169;81;21521;-65
2021/11/04 05:42:33;;;;;;;21.65;6.70;;;;;;;8.36;82.34;97716.48;2210197;80;21049;-64
2021/11/04 05:45:34;;;;;;;22.00;7.03;;;;;;;8.36;82.22;97723.02;2220371;80;21586;-65
2021/11/04 05:48:36;;;;;;;22.22;7.00;;;;;;;8.37;82.86;97715.55;2220796;80;21044;-65
2021/11/04 05:51:38;;;;;;;19.65;6.55;;;;;;;8.39;82.45;97707.98;2220343;80;21048;-65
2021/11/04 05:54:39;;;;;;;20.85;6.83;;;;;;;8.43;82.80;97712.05;2220446;80;21515;-65
2021/11/04 05:57:41;;;;;;;23.25;7.97;;;;;;;8.43;83.00;97700.30;2220594;80;21064;-65
2021/11/04 06:00:42;;;;;;;23.15;7.42;;;;;;;8.47;82.73;97695.22;2220462;80;21519;-65
2021/11/04 06:03:44;;;;;;;21.10;6.37;;;;;;;8.53;83.25;97691.82;2220571;80;21016;-64
2021/11/04 06:06:45;;;;;;;21.52;6.60;;;;;;;8.56;83.35;97678.08;2220467;80;21041;-65
2021/11/04 06:09:47;;;;;;;20.50;6.55;;;;;;;8.58;83.09;97668.82;2220598;80;21052;-65
2021/11/04 06:12:48;;;;;;;23.98;6.65;;;;;;;8.60;83.38;97665.61;2220387;80;21028;-65
2021/11/04 06:15:50;;;;;;;20.72;6.45;;;;;;;8.65;83.76;97654.37;2220471;80;21532;-64
2021/11/04 06:18:52;;;;;;;20.48;6.75;;;;;;;8.66;83.09;97639.88;2220428;80;21060;-65
2021/11/04 06:21:54;;;;;;;22.85;6.83;;;;;;;8.68;83.17;97631.92;2220468;80;21048;-65
2021/11/04 06:24:55;;;;;;;18.57;6.03;;;;;;;8.68;83.89;97607.09;2220404;80;21035;-65
2021/11/04 06:27:57;;;;;;;19.48;5.78;;;;;;;8.67;83.25;97606.72;2220556;80;21554;-64
2021/11/04 06:30:58;;;;;;;20.20;6.05;;;;;;;8.70;83.89;97603.05;2220431;80;21044;-65
2021/11/04 06:33:59;;;;;;;19.27;5.80;;;;;;;8.67;83.49;97604.92;2220392;80;21539;-65
2021/11/04 06:37:01;;;;;;;21.62;6.40;;;;;;;8.69;83.48;97596.97;2220561;80;21130;-65
2021/11/04 06:40:02;;;;;;;21.30;6.72;;;;;;;8.71;83.25;97592.97;2220613;80;21089;-64
2021/11/04 06:43:04;;;;;;;20.35;6.15;;;;;;;8.74;84.06;97599.27;2219123;80;21001;-65
2021/11/04 06:46:06;;;;;;;19.20;6.08;;;;;;;8.77;83.74;97588.59;2210479;80;21095;-65
2021/11/04 06:49:07;;;;;;;18.67;5.45;;;;;;;8.84;83.34;97591.11;2210237;81;20976;-65
2021/11/04 06:52:09;;;;;;;20.25;5.53;;;;;;;8.88;83.27;97604.78;2210274;81;21021;-65
2021/11/04 06:55:11;;;;;;;18.87;5.70;;;;;;;8.93;83.42;97594.83;2210371;81;21554;-65
2021/11/04 06:58:14;;;;;;;19.05;6.03;;;;;;;8.97;83.24;97591.05;2210136;81;20973;-65
2021/11/04 07:01:15;;;;;;;18.30;5.67;;;;;;;9.03;83.24;97587.14;2210394;80;20977;-65
2021/11/04 07:04:18;;;;;;;19.00;5.10;;;;;;;9.04;83.06;97578.33;2210420;80;21076;-65
2021/11/04 07:07:20;;;;;;;19.75;5.72;;;;;;;9.09;83.29;97577.03;2210180;81;21024;-65
2021/11/04 07:10:23;;;;;;;20.27;5.47;;;;;;;9.17;82.91;97572.06;2210640;80;21486;-65
2021/11/04 07:13:24;;;;;;;20.25;5.62;;;;;;;9.19;83.25;97578.03;2210269;81;20951;-65
2021/11/04 07:16:27;;;;;;;17.98;5.50;;;;;;;9.23;82.91;97583.86;2210579;81;20972;-65
2021/11/04 07:19:28;;;;;;;18.37;5.47;;;;;;;9.26;82.92;97596.70;2210495;80;21047;-65
2021/11/04 07:22:30;;;;;;;18.65;5.10;;;;;;;9.30;82.90;97596.84;2210397;81;21020;-65
2021/11/04 07:25:32;;;;;;;20.12;5.53;;;;;;;9.33;83.10;97595.29;2210011;80;21001;-65
2021/11/04 07:28:34;;;;;;;19.50;5.08;;;;;;;9.40;83.03;97597.47;2210088;81;21451;-65
2021/11/04 07:31:36;;;;;;;18.77;5.42;;;;;;;9.48;82.70;97592.00;2210492;80;20973;-65
2021/11/04 07:34:37;;;;;;;19.73;5.47;;;;;;;9.51;82.45;97583.91;2210514;81;21024;-65
2021/11/04 07:37:39;;;;;;;20.77;5.70;;;;;;;9.58;82.66;97588.19;2209964;81;21055;-65
2021/11/04 07:40:40;;;;;;;18.80;4.87;;;;;;;9.64;82.40;97592.12;2210311;81;21285;-65
2021/11/04 07:43:42;;;;;;;19.57;5.12;;;;;;;9.70;82.47;97587.74;2210200;80;21052;-65
2021/11/04 07:46:43;;;;;;;20.15;5.50;;;;;;;9.72;82.22;97579.28;2210303;81;20979;-65
2021/11/04 07:49:45;;;;;;;23.42;5.62;;;;;;;9.80;82.07;97572.98;2210272;81;21460;-65
2021/11/04 07:52:46;;;;;;;19.65;5.53;;;;;;;9.85;82.03;97570.81;2210562;80;20968;-65
2021/11/04 07:55:48;;;;;;;35.33;13.70;;;;;;;9.90;81.77;97562.63;2210694;81;21488;-65
2021/11/04 07:58:49;;;;;;;21.43;6.60;;;;;;;9.94;81.74;97571.06;2210582;81;20972;-65
2021/11/04 08:01:51;;;;;;;18.60;4.55;;;;;;;9.96;81.63;97577.84;2210264;81;21007;-65
2021/11/04 08:04:52;;;;;;;18.77;5.42;;;;;;;10.01;81.49;97575.72;2210379;80;21031;-65
2021/11/04 08:07:54;;;;;;;18.03;4.93;;;;;;;10.06;81.25;97556.52;2210653;81;21043;-65
2021/11/04 08:10:55;;;;;;;16.73;4.50;;;;;;;10.11;80.98;97552.70;2210688;80;20953;-65
2021/11/04 08:13:57;;;;;;;17.37;4.72;;;;;;;10.15;81.06;97554.95;2210541;80;21004;-65
2021/11/04 08:16:58;;;;;;;17.87;4.28;;;;;;;10.19;80.94;97556.38;2210411;81;20972;-65
2021/11/04 08:20:00;;;;;;;17.45;4.45;;;;;;;10.21;80.71;97547.08;2210294;81;20976;-65
2021/11/04 08:23:02;;;;;;;18.30;4.80;;;;;;;10.25;80.55;97539.34;2210270;81;21591;-65
2021/11/04 08:26:05;;;;;;;18.92;5.05;;;;;;;10.28;80.67;97536.47;2210270;80;21040;-65
2021/11/04 08:29:07;;;;;;;15.28;4.10;;;;;;;10.31;80.68;97528.35;2210269;81;21056;-65
2021/11/04 08:32:10;;;;;;;16.67;4.05;;;;;;;10.34;80.13;97541.72;2210174;81;21112;-65
2021/11/04 08:35:11;;;;;;;18.05;4.30;;;;;;;10.37;80.49;97530.53;2188819;81;21503;-65
2021/11/04 08:38:13;;;;;;;16.27;4.58;;;;;;;10.39;80.49;97523.36;2210496;81;20981;-65
2021/11/04 08:41:15;;;;;;;18.73;4.40;;;;;;;10.45;80.44;97515.97;2210404;81;21531;-65
2021/11/04 08:44:16;;;;;;;17.62;4.55;;;;;;;10.45;80.37;97510.23;2213513;80;21032;-65
2021/11/04 08:47:18;;;;;;;16.23;4.47;;;;;;;10.48;80.39;97492.95;2220918;80;21087;-65
2021/11/04 08:50:19;;;;;;;17.70;5.13;;;;;;;10.53;80.67;97489.48;2220929;80;21007;-65
2021/11/04 08:53:21;;;;;;;16.32;4.25;;;;;;;10.58;80.54;97471.56;2220217;80;21124;-65
2021/11/04 08:56:23;;;;;;;16.55;4.45;;;;;;;10.60;80.17;97471.92;2220672;80;21594;-65
2021/11/04 08:59:27;;;;;;;14.98;4.10;;;;;;;10.62;80.33;97466.91;2189825;80;21067;-65
2021/11/04 09:02:29;;;;;;;15.38;4.47;;;;;;;10.67;80.22;97480.95;2220714;80;21032;-65
2021/11/04 09:05:30;;;;;;;17.80;4.33;;;;;;;10.70;80.01;97464.49;2220916;80;21095;-65
2021/11/04 09:08:32;;;;;;;18.35;4.40;;;;;;;10.70;79.86;97476.30;2220855;80;21496;-65
2021/11/04 09:11:33;;;;;;;19.98;5.00;;;;;;;10.67;79.69;97480.45;2220893;80;21040;-65
2021/11/04 09:14:34;;;;;;;18.87;4.70;;;;;;;10.64;79.84;97490.38;2220589;80;21535;-65
2021/11/04 09:17:36;;;;;;;15.55;4.33;;;;;;;10.60;80.19;97470.61;2220753;80;21024;-65
2021/11/04 09:20:37;;;;;;;16.40;4.80;;;;;;;10.59;80.53;97461.92;2220593;80;21024;-65
2021/11/04 09:23:39;;;;;;;15.17;4.30;;;;;;;10.56;80.71;97437.28;2220908;80;20991;-65
2021/11/04 09:26:41;;;;;;;18.33;5.00;;;;;;;10.55;80.72;97452.64;2220912;80;21376;-65
2021/11/04 09:29:43;;;;;;;16.82;4.92;;;;;;;10.55;80.54;97436.92;2220081;80;21096;-65
2021/11/04 09:32:44;;;;;;;17.33;4.40;;;;;;;10.55;80.53;97428.56;2220748;80;21060;-64
2021/11/04 09:35:46;;;;;;;17.80;4.95;;;;;;;10.60;80.39;97427.35;2220882;80;21055;-65
2021/11/04 09:38:47;;;;;;;20.12;5.08;;;;;;;10.62;80.24;97431.52;2220516;80;21060;-65
2021/11/04 09:41:49;;;;;;;15.95;4.40;;;;;;;10.69;80.00;97442.33;2220451;80;21591;-65
2021/11/04 09:44:50;;;;;;;19.33;4.60;;;;;;;10.72;79.49;97435.52;2220888;80;21054;-65
2021/11/04 09:47:52;;;;;;;16.40;4.25;;;;;;;10.74;79.38;97444.08;2221184;80;21084;-65
2021/11/04 09:50:53;;;;;;;18.02;5.05;;;;;;;10.71;79.30;97443.84;2220822;80;21036;-65
2021/11/04 09:53:54;;;;;;;21.42;4.78;;;;;;;10.72;79.10;97449.94;2220829;80;21032;-65
2021/11/04 09:56:56;;;;;;;14.80;4.12;;;;;;;10.72;79.04;97446.83;2220784;80;21550;-65
2021/11/04 09:59:57;;;;;;;17.67;4.83;;;;;;;10.79;79.27;97424.01;2221091;80;20984;-65
2021/11/04 10:02:59;;;;;;;16.02;4.65;;;;;;;10.91;78.78;97404.13;2221036;80;21478;-65
2021/11/04 10:06:00;;;;;;;21.55;5.17;;;;;;;11.05;78.73;97408.21;2220958;80;21071;-65
2021/11/04 10:09:03;;;;;;;16.73;4.55;;;;;;;11.23;77.89;97412.84;2221063;80;21056;-65
2021/11/04 10:12:04;;;;;;;;;;;;;;;11.43;77.86;97408.03;2223575;80;21025;-65
2021/11/04 10:15:06;;;;;;;17.02;4.60;;;;;;;11.61;77.12;97397.69;2220926;80;20144;-65
2021/11/04 10:18:07;;;;;;;17.10;4.90;;;;;;;11.72;76.39;97392.82;2221085;80;20953;-65
2021/11/04 10:21:09;;;;;;;20.23;5.67;;;;;;;11.80;76.36;97410.52;2220739;80;21124;-65
2021/11/04 10:24:11;;;;;;;18.75;4.90;;;;;;;11.87;75.41;97422.14;2220998;80;21059;-65
2021/11/04 10:27:13;;;;;;;17.50;5.03;;;;;;;11.92;75.60;97391.05;2220940;80;21075;-65
2021/11/04 10:30:14;;;;;;;19.85;5.08;;;;;;;11.92;74.76;97398.93;2221088;80;21031;-65
2021/11/04 10:33:15;;;;;;;17.77;4.30;;;;;;;11.93;75.43;97401.91;2221007;80;21019;-65
2021/11/04 10:36:17;;;;;;;17.40;4.60;;;;;;;11.98;75.58;97393.61;2221028;80;21555;-65
2021/11/04 10:39:18;;;;;;;18.57;4.50;;;;;;;12.02;75.69;97402.06;2221067;80;21060;-65
2021/11/04 10:42:20;;;;;;;17.30;4.93;;;;;;;12.04;74.96;97416.73;2221223;80;21547;-65
2021/11/04 10:45:21;;;;;;;20.00;4.90;;;;;;;12.02;75.19;97403.38;2215809;80;20985;-65
2021/11/04 10:48:23;;;;;;;18.65;5.10;;;;;;;11.99;75.07;97402.34;2210445;80;21008;-65
2021/11/04 10:51:25;;;;;;;16.67;4.37;;;;;;;11.99;75.18;97399.22;2210778;80;20937;-65
2021/11/04 10:54:26;;;;;;;17.23;4.63;;;;;;;11.98;74.85;97412.00;2210615;80;21015;-65
2021/11/04 10:57:28;;;;;;;17.50;5.10;;;;;;;11.94;75.01;97407.52;2210137;81;21048;-65
2021/11/04 11:00:29;;;;;;;18.73;4.45;;;;;;;11.97;75.42;97399.86;2210675;81;21020;-65
2021/11/04 11:03:31;;;;;;;16.65;4.60;;;;;;;11.96;75.12;97385.05;2210577;81;21492;-65
2021/11/04 11:06:32;;;;;;;19.65;5.12;;;;;;;11.91;74.83;97365.73;2210471;81;20973;-65
2021/11/04 11:09:35;;;;;;;18.13;5.03;;;;;;;11.91;75.33;97363.57;2210595;80;21005;-65
2021/11/04 11:12:37;;;;;;;17.42;4.90;;;;;;;11.93;75.38;97379.58;2210189;81;21051;-65
2021/11/04 11:15:38;;;;;;;16.82;4.65;;;;;;;12.00;75.51;97376.42;2210376;81;21494;-65
2021/11/04 11:18:39;;;;;;;17.12;5.03;;;;;;;12.05;75.28;97370.25;2210463;81;21036;-65
2021/11/04 11:21:42;;;;;;;20.97;5.12;;;;;;;12.06;75.68;97370.61;2210295;81;20992;-65
2021/11/04 11:24:43;;;;;;;;;;;;;;;12.09;75.35;97351.44;2213018;81;21023;-65
2021/11/04 11:27:45;;;;;;;17.77;4.75;;;;;;;12.12;75.23;97352.95;2210335;80;20406;-65
2021/11/04 11:30:46;;;;;;;18.42;5.03;;;;;;;12.09;74.89;97348.80;2210346;81;20977;-65
2021/11/04 11:33:47;;;;;;;20.75;5.58;;;;;;;12.10;75.26;97356.22;2210262;81;21015;-65
2021/11/04 11:36:49;;;;;;;19.43;5.83;;;;;;;12.15;75.36;97347.91;2210839;80;20980;-65
2021/11/04 11:39:51;;;;;;;20.08;5.62;;;;;;;12.20;75.25;97357.54;2210315;81;20981;-65
2021/11/04 11:42:52;;;;;;;21.05;6.42;;;;;;;12.24;75.08;97356.27;2210369;81;21527;-65
2021/11/04 11:45:54;;;;;;;21.75;5.70;;;;;;;12.27;75.13;97349.44;2216404;80;21003;-65
2021/11/04 11:48:55;;;;;;;24.02;6.53;;;;;;;12.32;75.06;97354.27;2220933;80;20995;-65
2021/11/04 11:51:57;;;;;;;21.37;5.90;;;;;;;12.32;75.23;97362.97;2221360;80;20996;-65
2021/11/04 11:54:59;;;;;;;22.95;5.08;;;;;;;12.38;75.22;97355.83;2221090;80;21027;-65
2021/11/04 11:58:00;;;;;;;19.43;4.67;;;;;;;12.42;74.75;97356.39;2221178;80;21073;-65
2021/11/04 12:01:02;;;;;;;17.42;5.08;;;;;;;12.46;74.81;97354.65;2220939;80;21743;-65
2021/11/04 12:04:04;;;;;;;19.27;5.47;;;;;;;12.53;74.54;97347.50;2221149;80;21055;-65
2021/11/04 12:07:06;;;;;;;17.00;4.77;;;;;;;12.62;75.05;97343.53;2221184;80;21020;-65
2021/11/04 12:10:08;;;;;;;;;;;;;;;12.75;74.63;97341.91;2223542;80;21019;-65
2021/11/04 12:13:09;;;;;;;19.87;4.70;;;;;;;12.85;74.21;97323.95;2220922;80;20107;-65
2021/11/04 12:16:12;;;;;;;20.08;5.08;;;;;;;12.91;73.88;97326.00;2221176;80;21056;-65
2021/11/04 12:19:13;;;;;;;19.30;4.95;;;;;;;13.02;73.96;97323.69;2220927;80;21035;-65
2021/11/04 12:22:15;;;;;;;16.63;4.67;;;;;;;13.12;73.92;97316.56;2221220;80;20971;-65
2021/11/04 12:25:16;;;;;;;17.90;4.37;;;;;;;13.14;73.83;97319.37;2221157;80;21076;-65
2021/11/04 12:28:17;;;;;;;20.08;5.28;;;;;;;13.16;73.70;97338.49;2221145;80;21519;-65
2021/11/04 12:31:19;;;;;;;15.40;3.90;;;;;;;13.18;73.79;97339.16;2221175;80;21075;-65
2021/11/04 12:34:21;;;;;;;15.80;4.23;;;;;;;13.19;73.60;97340.01;2221100;80;21036;-66
2021/11/04 12:37:23;;;;;;;15.43;3.98;;;;;;;13.18;73.18;97339.66;2220996;80;21031;-65
2021/11/04 12:40:24;;;;;;;14.55;4.33;;;;;;;13.09;73.64;97350.58;2221017;80;21590;-65
2021/11/04 12:43:26;;;;;;;19.12;4.60;;;;;;;13.05;73.91;97361.05;2221230;80;21059;-65
2021/11/04 12:46:27;;;;;;;16.25;4.37;;;;;;;13.11;74.34;97358.33;2220769;80;21083;-65
2021/11/04 12:49:29;;;;;;;17.47;4.27;;;;;;;13.19;74.40;97341.33;2220773;80;21076;-65
2021/11/04 12:52:32;;;;;;;17.30;4.50;;;;;;;13.30;73.84;97332.39;2220787;80;21056;-65
2021/11/04 12:55:33;;;;;;;15.00;4.08;;;;;;;13.38;73.95;97335.66;2220565;80;21038;-65
2021/11/04 12:58:35;;;;;;;14.05;4.10;;;;;;;13.45;73.66;97335.40;2220290;80;21546;-65
2021/11/04 13:01:37;;;;;;;20.97;4.85;;;;;;;13.48;73.98;97345.13;2220790;80;21024;-66
2021/11/04 13:04:39;;;;;;;17.67;4.37;;;;;;;13.51;73.96;97344.02;2220613;80;21523;-65
2021/11/04 13:07:41;;;;;;;18.67;4.60;;;;;;;13.57;74.15;97354.45;2220875;80;21071;-65
2021/11/04 13:10:42;;;;;;;18.77;4.37;;;;;;;13.57;73.96;97343.91;2220663;80;22258;-65
2021/11/04 13:13:44;;;;;;;16.97;4.78;;;;;;;13.62;74.16;97365.35;2220866;80;21035;-65
2021/11/04 13:16:45;;;;;;;18.30;4.63;;;;;;;13.82;73.76;97359.46;2220749;80;21084;-65
2021/11/04 13:19:46;;;;;;;17.90;5.27;;;;;;;14.37;72.97;97365.88;2220882;80;21095;-65
2021/11/04 13:22:48;;;;;;;16.33;4.60;;;;;;;14.90;72.62;97356.20;2220777;80;21024;-65
2021/11/04 13:25:49;;;;;;;19.37;5.10;;;;;;;15.23;70.67;97356.36;2220959;80;21554;-65
2021/11/04 13:28:51;;;;;;;21.03;5.23;;;;;;;15.42;70.89;97364.51;2220615;80;21154;-65
2021/11/04 13:31:52;;;;;;;17.40;4.40;;;;;;;15.56;71.29;97358.30;2220744;80;21571;-65
2021/11/04 13:34:53;;;;;;;17.43;4.70;;;;;;;15.73;70.04;97363.10;2220712;80;21036;-65
2021/11/04 13:37:55;;;;;;;19.17;4.50;;;;;;;15.45;70.15;97370.48;2220741;80;21016;-65
2021/11/04 13:40:56;;;;;;;20.43;5.13;;;;;;;15.13;70.46;97387.82;2220712;80;21579;-65
2021/11/04 13:43:58;;;;;;;16.77;4.30;;;;;;;14.95;71.23;97386.59;2220716;80;21045;-65
2021/11/04 13:46:59;;;;;;;17.17;4.33;;;;;;;15.07;71.48;97399.36;2212276;80;21555;-65
2021/11/04 13:50:01;;;;;;;16.40;4.50;;;;;;;15.12;71.14;97404.17;2210271;81;21068;-65
2021/11/04 13:53:02;;;;;;;13.77;4.07;;;;;;;15.13;70.49;97411.11;2210404;81;21068;-65
2021/11/04 13:56:04;;;;;;;15.88;4.60;;;;;;;15.02;71.37;97421.94;2209953;81;21107;-65
2021/11/04 13:59:06;;;;;;;22.07;5.17;;;;;;;15.16;71.69;97426.64;2210460;81;21056;-65
2021/11/04 14:02:07;;;;;;;20.85;5.58;;;;;;;15.13;71.03;97437.99;2210494;80;20984;-65
2021/11/04 14:05:10;;;;;;;14.13;4.27;;;;;;;14.94;71.16;97436.40;2210405;81;21040;-65
2021/11/04 14:08:13;;;;;;;19.35;4.25;;;;;;;14.68;71.61;97447.77;2210093;81;21090;-65
2021/11/04 14:11:15;;;;;;;18.37;4.62;;;;;;;14.48;71.94;97454.98;2210253;81;20972;-65